Searcy Airport

About
Name: Searcy Airport
Identifier:  SRC/KSRC
Local Time:  18. Aug 12:08 CDT
Location
Flights per Day
0 flights
Distance: 856km (532mi)
Punctuality
-100% (0 flights per day delayed)
Delay Average: 16 minutes
Current Weather
 31 C (Humidity: 74%)
  7kt (12km/h / 8mph) from 190°
  16km (10 mi.)
 
 METAR KSRC 181556Z AUTO 19007KT 10SM CLR 31/26 A2996 RMK AO2 SLP145 T03110261

Current Flights

Departures
Number Departure To Airline
Arrivals
Number Arrival From Airline

Current Delays

Departures
N/A
Arrivals
N/A

Destinations

Top Destinations
Airport Flights
per week
Seats
per week
  Memphis (MEM) 1 - 0 0
  Montgomery (MGM) 1 - 0 0
  Destin (DSI) 0 - 0 0
  Atlanta (PDK) 0 - 0 0
  Springdale (SPZ) 0 - 0 0
  Mountain Home (WMH) 0 - 0 0
  St. Louis (SUS) 0 - 0 0
  Sioux Falls (FSD) 0 - 0 0
  Garden City (GCK) 0 - 0 0
  Asheville (AVL) 0 - 0 0
  Apalachicola (AAF) 0 - 0 0
  Birmingham (BHM) 0 - 0 0
  Kansas City (MKC) 0 - 0 0
  Dallas (ADS) 0 - 0 0

Airlines & Planes

Top Airlines
Airline Flights
per Day
Seats
per Day
Nordwind Airlines 0 -
Jet Charter Inc ( Franklin Lakes Nj ) 0 -
  Flybe Nordic 0 -
  Nolinor Aviation 0 -
  Novair 0 -
  National Airlines 0 -
Top Plane Types
Model Flights Seats
Cessna C172 0.2/day - 0
Pilatus PC-12 0.1/day - 0
Cessna C25B 0.0/day - 0
Beech E90 King Air 0.0/day - 0
Beech G36 Bonanza 0.0/day - 0